Time;durP1;ratioP1;P1;durP2;ratioP2;P2;SDS_P1;SDS_P2;PMS_P1;PMS_P2;Temp;Humidity;BMP_temperature;BMP_pressure;BME280_temperature;BME280_humidity;BME280_pressure;Samples;Min_cycle;Max_cycle;Signal;HPM_P1;HPM_P2
2022/12/20 00:00:51;;;;;;;10.50;3.85;;;;;;;9.23;89.02;101100.03;5076166;28;20048;-56
2022/12/20 00:03:19;;;;;;;10.32;3.92;;;;;;;9.19;89.10;101094.16;5076081;28;20446;-57
2022/12/20 00:05:46;;;;;;;10.93;3.70;;;;;;;9.20;89.35;101087.91;5075820;28;20094;-56
2022/12/20 00:08:13;;;;;;;11.27;3.50;;;;;;;9.28;88.76;101097.81;5075803;28;20048;-56
2022/12/20 00:10:43;;;;;;;8.02;3.20;;;;;;;9.22;88.79;101091.25;5076579;28;20052;-56
2022/12/20 00:13:11;;;;;;;10.85;3.70;;;;;;;9.21;88.97;101086.94;5075557;28;20040;-56
2022/12/20 00:15:37;;;;;;;7.32;3.20;;;;;;;9.27;88.81;101087.34;5076413;28;20101;-58
2022/12/20 00:18:04;;;;;;;8.48;3.65;;;;;;;9.20;89.21;101090.56;5075922;28;20052;-56
2022/12/20 00:20:31;;;;;;;8.65;3.20;;;;;;;9.27;89.08;101090.00;5076357;28;20048;-56
2022/12/20 00:22:58;;;;;;;9.52;3.47;;;;;;;9.20;89.24;101090.56;5092095;28;20135;-56
2022/12/20 00:25:25;;;;;;;9.30;3.50;;;;;;;9.19;89.39;101094.16;5075699;28;20048;-56
2022/12/20 00:27:51;;;;;;;11.05;3.28;;;;;;;9.23;89.67;101084.16;5075672;28;20522;-56
2022/12/20 00:30:18;;;;;;;11.18;3.13;;;;;;;9.19;89.31;101086.22;5075797;28;20049;-56
2022/12/20 00:32:46;;;;;;;7.53;3.03;;;;;;;9.20;89.49;101087.06;5075246;28;20039;-56
2022/12/20 00:35:13;;;;;;;7.35;3.25;;;;;;;9.15;89.95;101079.53;5075435;28;20047;-56
2022/12/20 00:37:39;;;;;;;7.82;3.30;;;;;;;9.26;89.98;101089.19;5076078;28;20094;-56
2022/12/20 00:40:06;;;;;;;11.45;3.10;;;;;;;9.25;90.37;101091.97;5075826;28;20444;-56
2022/12/20 00:42:33;;;;;;;9.30;3.40;;;;;;;9.26;90.30;101088.31;5075186;28;20075;-56
2022/12/20 00:45:01;;;;;;;9.98;3.65;;;;;;;9.22;90.30;101087.75;5091287;28;20090;-56
2022/12/20 00:47:28;;;;;;;9.73;3.50;;;;;;;9.25;90.47;101095.44;5075868;28;20494;-56
2022/12/20 00:49:55;;;;;;;10.73;3.53;;;;;;;9.22;90.56;101090.41;5075291;28;20513;-56
2022/12/20 00:52:22;;;;;;;9.63;3.53;;;;;;;9.26;89.97;101088.31;5075579;28;20106;-56
2022/12/20 00:54:49;;;;;;;9.85;3.33;;;;;;;9.20;89.93;101100.28;5075118;28;20040;-56
2022/12/20 00:57:15;;;;;;;9.75;3.67;;;;;;;9.22;90.00;101093.03;5091020;28;20055;-56
2022/12/20 00:59:42;;;;;;;12.02;4.10;;;;;;;9.27;89.96;101082.06;5075109;28;20047;-57
2022/12/20 01:02:09;;;;;;;11.68;3.50;;;;;;;9.49;88.33;101078.31;5074951;28;20076;-56
2022/12/20 01:04:36;;;;;;;8.68;3.15;;;;;;;9.31;89.20;101078.97;5075158;28;20139;-56
2022/12/20 01:07:03;;;;;;;8.50;3.65;;;;;;;9.27;89.28;101082.06;5074528;28;20074;-56
2022/12/20 01:09:30;;;;;;;11.40;3.40;;;;;;;9.22;89.95;101077.16;5075117;28;20052;-56
2022/12/20 01:11:57;;;;;;;13.20;3.85;;;;;;;9.19;89.96;101072.16;5074952;28;20561;-56
2022/12/20 01:14:24;;;;;;;12.82;3.92;;;;;;;9.16;89.87;101067.97;5074739;28;20115;-56
2022/12/20 01:16:51;;;;;;;13.35;3.60;;;;;;;9.20;89.79;101069.38;5074876;28;20044;-56
2022/12/20 01:19:18;;;;;;;10.05;3.38;;;;;;;9.23;89.98;101069.09;5088505;28;20113;-56
2022/12/20 01:21:45;;;;;;;9.82;3.55;;;;;;;9.29;89.92;101070.34;5072826;28;20053;-56
2022/12/20 01:24:15;;;;;;;9.13;3.35;;;;;;;9.23;89.93;101058.50;5074862;28;20037;-56
2022/12/20 01:26:42;;;;;;;8.00;3.30;;;;;;;9.30;89.54;101060.63;5074513;28;20122;-56
2022/12/20 01:29:09;;;;;;;8.18;3.35;;;;;;;9.31;89.54;101062.28;5074972;28;20050;-56
2022/12/20 01:31:36;;;;;;;8.88;3.33;;;;;;;9.34;89.38;101057.53;5074872;28;20090;-56
2022/12/20 01:34:04;;;;;;;9.25;3.10;;;;;;;9.36;89.36;101049.47;5074073;28;20512;-56
2022/12/20 01:36:33;;;;;;;8.77;3.40;;;;;;;9.30;89.89;101055.31;5074685;28;20553;-56
2022/12/20 01:39:04;;;;;;;8.50;3.38;;;;;;;9.38;89.26;101056.28;5074501;28;20066;-56
2022/12/20 01:41:33;;;;;;;8.30;3.17;;;;;;;9.43;89.08;101058.53;5090040;28;20413;-56
2022/12/20 01:46:53;;;;;;;9.65;3.33;;;;;;;9.36;89.13;101057.41;5070740;28;20367;-57
2022/12/20 01:49:34;;;;;;;10.68;3.63;;;;;;;9.48;89.18;101066.91;5070670;28;20204;-57
2022/12/20 01:52:10;;;;;;;7.97;3.42;;;;;;;9.54;88.63;101055.72;5070916;28;20052;-57
2022/12/20 01:54:41;;;;;;;8.55;3.50;;;;;;;9.56;88.76;101055.59;5070450;28;20056;-57
2022/12/20 01:57:13;;;;;;;9.00;3.20;;;;;;;9.65;88.56;101064.53;5070542;28;20056;-57
2022/12/20 01:59:41;;;;;;;;;;;;;;;9.56;88.87;101063.53;5070946;28;20041;-57
2022/12/20 02:02:10;;;;;;;8.30;3.40;;;;;;;9.52;89.17;101055.03;5086041;28;19920;-57
2022/12/20 02:04:38;;;;;;;9.70;4.07;;;;;;;9.54;89.51;101053.09;5070479;28;20052;-57
2022/12/20 02:07:07;;;;;;;9.43;3.58;;;;;;;9.61;89.57;101050.72;5069751;28;20119;-57
2022/12/20 02:09:36;;;;;;;8.45;3.30;;;;;;;9.50;90.02;101048.22;5070378;28;20080;-57
2022/12/20 02:15:18;;;;;;;13.13;4.10;;;;;;;9.40;90.55;101035.81;5111009;27;20368;-56
2022/12/20 02:18:16;;;;;;;7.45;3.50;;;;;;;9.35;90.57;101027.44;5110884;28;20079;-56
2022/12/20 02:24:12;;;;;;;11.88;3.83;;;;;;;9.19;91.68;101035.94;5111042;27;20712;-55
2022/12/20 02:27:07;;;;;;;9.93;3.90;;;;;;;9.34;90.91;101030.22;5111421;28;20496;-55
2022/12/20 02:29:42;;;;;;;9.27;3.72;;;;;;;9.34;90.93;101031.06;5110728;28;20081;-55
2022/12/20 02:32:18;;;;;;;9.93;4.30;;;;;;;9.21;91.30;101026.03;5110333;28;20435;-57
2022/12/20 02:34:46;;;;;;;12.63;4.30;;;;;;;9.21;91.10;101018.09;5110724;28;20075;-56
2022/12/20 02:37:12;;;;;;;10.13;4.47;;;;;;;9.19;91.29;101020.06;5111042;28;20036;-56
2022/12/20 02:39:43;;;;;;;11.63;5.03;;;;;;;9.29;91.03;101021.88;5111104;28;20070;-56
2022/12/20 02:42:11;;;;;;;11.15;4.70;;;;;;;9.25;91.30;101025.78;5110552;28;20035;-57
2022/12/20 02:45:15;;;;;;;12.02;4.95;;;;;;;9.32;91.04;101026.91;5110782;28;20043;-56
2022/12/20 02:50:25;;;;;;;11.25;5.35;;;;;;;9.30;91.17;101037.63;5113926;27;1183413;-57
2022/12/20 02:52:53;;;;;;;10.80;4.93;;;;;;;9.31;91.15;101033.16;5131565;27;20092;-56
2022/12/20 02:55:27;;;;;;;11.38;5.25;;;;;;;9.35;91.14;101035.41;5131691;27;20167;-55
2022/12/20 02:58:05;;;;;;;12.35;5.70;;;;;;;9.32;91.27;101035.66;5131471;27;20050;-56
2022/12/20 03:00:39;;;;;;;13.85;5.50;;;;;;;9.19;92.77;101041.22;5131557;27;20480;-57
2022/12/20 03:03:21;;;;;;;11.88;5.07;;;;;;;9.18;94.14;101031.59;5131845;27;20043;-56
2022/12/20 03:05:52;;;;;;;12.75;5.57;;;;;;;9.23;93.81;101029.38;5110663;28;20044;-56
2022/12/20 03:08:22;;;;;;;13.75;5.30;;;;;;;9.23;94.92;101032.03;5110847;28;20051;-56
2022/12/20 03:10:50;;;;;;;11.80;5.32;;;;;;;9.15;95.47;101031.03;5110832;28;20127;-56
2022/12/20 03:13:17;;;;;;;11.13;5.55;;;;;;;9.08;96.01;101035.22;5109598;28;20043;-56
2022/12/20 03:15:50;;;;;;;11.93;5.97;;;;;;;9.05;96.72;101036.34;5110744;28;20481;-56
2022/12/20 03:18:16;;;;;;;13.25;5.85;;;;;;;8.97;98.18;101037.03;5110729;28;20378;-56
2022/12/20 03:20:44;;;;;;;20.60;6.47;;;;;;;8.90;98.84;101040.34;5093798;27;20070;-56
2022/12/20 03:23:11;;;;;;;18.45;6.07;;;;;;;8.88;99.33;101032.53;5128134;28;20112;-56
2022/12/20 03:25:38;;;;;;;15.95;7.28;;;;;;;8.88;98.85;101043.13;5130961;27;20050;-56
2022/12/20 03:28:07;;;;;;;14.02;6.53;;;;;;;8.73;100.00;101029.44;5129272;27;20051;-56
2022/12/20 03:30:34;;;;;;;13.90;5.75;;;;;;;8.71;100.00;101035.84;5130119;28;20089;-56
2022/12/20 03:33:00;;;;;;;19.38;6.03;;;;;;;8.76;100.00;101038.91;5130351;27;20562;-56
2022/12/20 03:35:27;;;;;;;13.02;5.72;;;;;;;8.77;100.00;101035.31;5130953;27;20097;-56
2022/12/20 03:37:55;;;;;;;12.57;5.50;;;;;;;8.67;100.00;101037.06;5130850;27;20074;-56
2022/12/20 03:40:22;;;;;;;15.52;5.97;;;;;;;8.65;100.00;101038.03;5130931;27;20373;-56
2022/12/20 03:42:49;;;;;;;14.85;6.07;;;;;;;8.57;100.00;101037.88;5130661;27;20446;-56
2022/12/20 03:45:16;;;;;;;14.60;5.88;;;;;;;8.54;100.00;101043.44;5130814;27;20050;-56
2022/12/20 03:47:43;;;;;;;11.70;5.57;;;;;;;8.53;100.00;101043.56;5130762;27;20043;-56
2022/12/20 03:50:11;;;;;;;17.33;5.72;;;;;;;8.45;100.00;101041.59;5129246;27;20062;-56
2022/12/20 03:52:38;;;;;;;13.10;5.72;;;;;;;8.32;100.00;101041.78;5130715;27;20063;-56
2022/12/20 03:55:05;;;;;;;15.05;5.70;;;;;;;8.32;100.00;101041.78;5130510;27;20081;-56
2022/12/20 03:57:38;;;;;;;13.02;6.88;;;;;;;8.41;100.00;101038.34;5130321;27;20118;-56
2022/12/20 04:00:17;;;;;;;13.18;6.55;;;;;;;8.25;100.00;101046.75;5124808;27;20442;-56
2022/12/20 04:02:46;;;;;;;15.60;5.97;;;;;;;8.22;100.00;101036.47;5116998;28;20054;-56
2022/12/20 04:05:12;;;;;;;14.75;6.30;;;;;;;8.23;100.00;101030.19;5116506;28;20043;-56
2022/12/20 04:07:41;;;;;;;19.17;6.80;;;;;;;8.17;100.00;101030.72;5116140;28;20036;-56
2022/12/20 04:10:08;;;;;;;12.02;6.28;;;;;;;8.08;100.00;101034.16;5116674;28;20071;-56
2022/12/20 04:12:36;;;;;;;18.30;6.82;;;;;;;8.18;100.00;101031.53;5116346;28;20050;-56
2022/12/20 04:15:06;;;;;;;15.13;6.90;;;;;;;8.19;100.00;101033.25;5116510;28;20123;-57
2022/12/20 04:17:34;;;;;;;16.13;6.60;;;;;;;8.10;100.00;101037.50;5116484;28;20100;-56
2022/12/20 04:20:17;;;;;;;20.02;7.32;;;;;;;8.10;100.00;101031.38;5116782;28;20035;-56
2022/12/20 04:22:50;;;;;;;15.80;7.28;;;;;;;8.12;100.00;101034.72;5116548;28;20058;-56
2022/12/20 04:25:19;;;;;;;13.93;6.82;;;;;;;8.02;100.00;101029.38;5116005;28;20038;-57
2022/12/20 04:27:47;;;;;;;16.13;6.78;;;;;;;8.03;100.00;101018.69;5116271;28;20048;-56
2022/12/20 04:30:14;;;;;;;14.60;6.80;;;;;;;8.08;100.00;101016.47;5115931;28;20054;-56
2022/12/20 04:32:41;;;;;;;19.48;7.50;;;;;;;8.10;100.00;101026.09;5116468;28;20135;-56
2022/12/20 04:35:08;;;;;;;14.93;6.47;;;;;;;8.10;100.00;101020.81;5115254;28;20229;-56
2022/12/20 04:37:39;;;;;;;14.20;7.05;;;;;;;8.00;100.00;101023.38;5116452;28;20093;-56
2022/12/20 04:40:07;;;;;;;16.23;7.10;;;;;;;8.10;100.00;101018.16;5115920;28;20040;-56
2022/12/20 04:42:43;;;;;;;19.20;7.35;;;;;;;8.07;100.00;101014.78;5116083;28;20147;-56
2022/12/20 04:45:12;;;;;;;16.42;7.03;;;;;;;8.01;100.00;101017.97;5114686;28;20040;-56
2022/12/20 04:47:39;;;;;;;16.58;7.13;;;;;;;8.04;100.00;101016.88;5114798;28;20058;-56
2022/12/20 04:50:07;;;;;;;15.82;7.03;;;;;;;8.13;100.00;101010.81;5115450;28;20040;-56
2022/12/20 04:55:21;;;;;;;16.25;7.30;;;;;;;8.05;100.00;100992.94;5115364;28;20043;-56
2022/12/20 04:57:48;;;;;;;18.50;7.30;;;;;;;8.01;100.00;100986.28;5114261;28;20036;-56
2022/12/20 05:00:15;;;;;;;17.70;7.32;;;;;;;7.98;100.00;100989.16;5114588;28;20130;-57
2022/12/20 05:02:45;;;;;;;13.90;7.18;;;;;;;7.98;100.00;100991.81;5115544;28;20059;-57
2022/12/20 05:05:16;;;;;;;16.48;7.03;;;;;;;7.94;100.00;100987.75;5113889;28;20165;-57
2022/12/20 05:07:49;;;;;;;17.85;7.68;;;;;;;8.03;100.00;100988.78;5115030;28;20500;-57
2022/12/20 05:10:17;;;;;;;17.67;7.75;;;;;;;8.02;100.00;100977.38;5115162;28;20039;-57
2022/12/20 05:12:44;;;;;;;18.95;7.22;;;;;;;8.03;100.00;100973.75;5112572;28;20047;-57
2022/12/20 05:15:18;;;;;;;19.65;8.02;;;;;;;8.17;100.00;100967.28;5115257;28;20054;-57
2022/12/20 05:17:45;;;;;;;19.73;8.30;;;;;;;8.11;100.00;100970.44;5115366;28;20408;-56
2022/12/20 05:20:12;;;;;;;16.80;8.18;;;;;;;8.10;100.00;100952.94;5114839;28;20063;-57
2022/12/20 05:28:16;;;;;;;21.27;8.55;;;;;;;8.19;100.00;100954.78;5114042;28;20032;-57
2022/12/20 05:30:43;;;;;;;16.15;8.40;;;;;;;8.16;100.00;100954.22;5115079;28;20039;-57
2022/12/20 05:33:10;;;;;;;23.40;8.80;;;;;;;8.18;100.00;100960.19;5114303;28;20401;-57
2022/12/20 05:35:40;;;;;;;18.38;8.50;;;;;;;8.14;100.00;100956.97;5094273;28;20043;-56
2022/12/20 05:38:10;;;;;;;16.40;8.30;;;;;;;8.11;100.00;100953.78;5093977;28;20074;-57
2022/12/20 05:40:38;;;;;;;20.42;8.68;;;;;;;8.08;100.00;100947.78;5094683;28;20044;-57
2022/12/20 05:43:06;;;;;;;20.73;9.25;;;;;;;8.11;100.00;100944.03;5093890;28;20044;-57
2022/12/20 05:45:39;;;;;;;15.85;8.70;;;;;;;8.14;100.00;100946.41;5094448;28;20052;-57
2022/12/20 05:48:13;;;;;;;16.55;8.43;;;;;;;8.15;100.00;100942.81;5093105;28;20050;-56
2022/12/20 05:50:43;;;;;;;18.55;7.60;;;;;;;8.19;100.00;100940.75;5094423;28;20044;-57
2022/12/20 05:53:27;;;;;;;17.35;7.40;;;;;;;8.18;100.00;100936.41;5094230;28;20489;-57
2022/12/20 05:55:58;;;;;;;23.27;8.15;;;;;;;8.17;100.00;100926.81;5094126;28;20447;-56
2022/12/20 05:58:30;;;;;;;17.77;8.00;;;;;;;8.16;100.00;100925.16;5094147;28;20060;-57
2022/12/20 06:01:01;;;;;;;16.10;7.93;;;;;;;8.19;100.00;100928.34;5094010;28;20127;-57
2022/12/20 06:03:30;;;;;;;18.88;6.85;;;;;;;8.32;100.00;100922.84;5111726;28;20079;-57
2022/12/20 06:05:58;;;;;;;17.67;6.95;;;;;;;8.36;100.00;100924.22;5114176;28;20043;-57
2022/12/20 06:08:28;;;;;;;18.13;6.78;;;;;;;8.37;100.00;100919.78;5114277;28;20131;-58
2022/12/20 06:10:57;;;;;;;16.70;6.85;;;;;;;8.31;100.00;100930.88;5096543;28;20044;-57
2022/12/20 06:13:24;;;;;;;15.38;7.05;;;;;;;8.35;100.00;100929.63;5114024;27;20400;-57
2022/12/20 06:15:53;;;;;;;14.82;6.47;;;;;;;8.30;100.00;100929.22;5114327;28;20062;-56
2022/12/20 06:18:20;;;;;;;14.07;6.18;;;;;;;8.31;100.00;100934.34;5114185;28;20126;-57
2022/12/20 06:20:52;;;;;;;18.13;6.72;;;;;;;8.42;100.00;100928.16;5114024;28;20118;-58
2022/12/20 06:23:22;;;;;;;16.73;7.55;;;;;;;8.38;100.00;100932.84;5113543;28;20083;-56
2022/12/20 06:26:08;;;;;;;14.20;6.88;;;;;;;8.40;100.00;100930.94;5113681;28;20489;-57
2022/12/20 06:28:44;;;;;;;12.27;6.07;;;;;;;8.41;100.00;100916.72;5113731;28;20059;-57
2022/12/20 06:31:12;;;;;;;15.88;6.88;;;;;;;8.50;100.00;100930.97;5104590;28;20051;-50
2022/12/20 06:33:43;;;;;;;15.23;6.13;;;;;;;8.47;100.00;100930.41;5113706;28;20092;-52
2022/12/20 06:36:12;;;;;;;15.63;6.25;;;;;;;8.45;100.00;100923.44;5113719;28;20047;-50
2022/12/20 06:38:40;;;;;;;14.55;6.90;;;;;;;8.42;100.00;100913.16;5113924;28;20048;-50
2022/12/20 06:41:07;;;;;;;17.30;6.47;;;;;;;8.62;100.00;100914.03;5113759;28;20122;-50
2022/12/20 06:43:34;;;;;;;12.23;6.43;;;;;;;8.49;100.00;100907.31;5113449;28;20069;-53
2022/12/20 06:46:01;;;;;;;15.63;6.55;;;;;;;8.54;100.00;100900.63;5112965;28;20127;-56
2022/12/20 06:48:28;;;;;;;13.45;6.60;;;;;;;8.64;100.00;100893.56;5113146;28;20458;-52
2022/12/20 06:50:55;;;;;;;13.55;6.10;;;;;;;8.54;100.00;100883.94;5112929;28;20065;-50
2022/12/20 06:53:24;;;;;;;16.23;7.47;;;;;;;8.47;100.00;100885.47;5112792;28;20031;-51
2022/12/20 06:55:51;;;;;;;16.20;7.13;;;;;;;8.57;100.00;100887.16;5113300;28;20126;-52
2022/12/20 06:58:19;;;;;;;15.57;6.78;;;;;;;8.47;100.00;100896.03;5112847;28;20047;-53
2022/12/20 07:00:47;;;;;;;16.67;6.95;;;;;;;8.40;100.00;100891.28;5113512;28;20044;-52
2022/12/20 07:03:14;;;;;;;11.93;6.53;;;;;;;8.37;100.00;100891.53;5113407;28;20058;-50
2022/12/20 07:05:41;;;;;;;13.63;6.57;;;;;;;8.54;100.00;100884.78;5113106;28;20051;-50
2022/12/20 07:08:08;;;;;;;16.48;6.55;;;;;;;8.63;100.00;100889.25;5112999;28;20043;-50
2022/12/20 07:10:36;;;;;;;15.38;6.90;;;;;;;8.51;100.00;100881.56;5113331;28;20044;-50
2022/12/20 07:13:03;;;;;;;17.08;7.63;;;;;;;8.48;100.00;100880.03;5113358;28;20044;-50
2022/12/20 07:15:30;;;;;;;15.05;6.25;;;;;;;8.56;100.00;100885.47;5113083;28;20039;-49
2022/12/20 07:17:57;;;;;;;14.82;6.50;;;;;;;8.43;100.00;100885.72;5113063;28;20039;-52
2022/12/20 07:20:23;;;;;;;17.17;6.68;;;;;;;8.42;100.00;100885.88;5113607;28;20044;-53
2022/12/20 07:22:50;;;;;;;14.18;6.35;;;;;;;8.39;100.00;100879.03;5058658;28;20100;-57
2022/12/20 07:25:17;;;;;;;14.85;6.57;;;;;;;8.43;100.00;100880.44;5070333;28;20048;-57
2022/12/20 07:27:48;;;;;;;12.10;6.32;;;;;;;8.44;100.00;100882.13;5071586;28;20166;-58
2022/12/20 07:30:16;;;;;;;16.05;7.20;;;;;;;8.45;100.00;100875.03;5073099;28;20068;-57
2022/12/20 07:32:44;;;;;;;14.88;6.55;;;;;;;8.42;100.00;100862.06;5072511;28;20044;-60
2022/12/20 07:35:11;;;;;;;18.50;6.43;;;;;;;8.37;100.00;100859.81;5057275;28;20571;-59
2022/12/20 07:37:38;;;;;;;16.17;6.88;;;;;;;8.56;100.00;100866.13;5055111;28;20048;-57
2022/12/20 07:40:06;;;;;;;20.17;6.70;;;;;;;8.46;100.00;100871.44;5056442;28;20509;-57
2022/12/20 07:42:33;;;;;;;15.85;6.40;;;;;;;8.51;100.00;100869.19;5056238;28;20053;-57
2022/12/20 07:45:02;;;;;;;16.65;6.50;;;;;;;8.51;100.00;100868.34;5056266;28;20132;-57
2022/12/20 07:47:29;;;;;;;14.02;6.53;;;;;;;8.49;100.00;100865.00;5056276;28;20410;-56
2022/12/20 07:49:56;;;;;;;14.38;6.32;;;;;;;8.52;100.00;100873.50;5055599;28;20067;-57
2022/12/20 07:52:26;;;;;;;20.00;6.57;;;;;;;8.42;100.00;100870.84;5056615;28;20048;-57
2022/12/20 07:54:57;;;;;;;18.48;6.82;;;;;;;8.43;100.00;100874.34;5055874;28;20053;-57
2022/12/20 07:57:30;;;;;;;18.42;6.53;;;;;;;8.38;100.00;100882.63;5056128;28;20120;-57
2022/12/20 08:00:00;;;;;;;24.42;6.50;;;;;;;8.46;100.00;100884.66;5055818;28;20121;-57
2022/12/20 08:02:48;;;;;;;14.95;6.05;;;;;;;8.50;100.00;100879.91;5055936;28;20041;-57
2022/12/20 08:05:16;;;;;;;15.27;6.80;;;;;;;8.53;100.00;100882.25;5055895;28;20064;-56
2022/12/20 08:07:45;;;;;;;13.90;6.28;;;;;;;8.53;100.00;100882.25;5055591;28;20103;-56
2022/12/20 08:10:14;;;;;;;14.27;6.57;;;;;;;8.52;100.00;100870.03;5055808;28;20060;-57
2022/12/20 08:12:44;;;;;;;15.55;6.97;;;;;;;8.52;100.00;100875.31;5055768;28;20056;-57
2022/12/20 08:15:11;;;;;;;14.18;6.60;;;;;;;8.49;100.00;100876.41;5055560;28;20037;-56
2022/12/20 08:17:37;;;;;;;20.23;7.22;;;;;;;8.53;100.00;100876.97;5055498;28;20055;-56
2022/12/20 08:20:05;;;;;;;15.40;6.75;;;;;;;8.57;100.00;100876.59;5047417;28;20040;-57
2022/12/20 08:22:32;;;;;;;14.55;6.07;;;;;;;8.65;100.00;100874.06;5068870;28;20102;-59
2022/12/20 08:24:59;;;;;;;18.77;6.70;;;;;;;8.69;100.00;100861.41;5054981;28;20104;-59
2022/12/20 08:27:26;;;;;;;17.00;7.13;;;;;;;8.69;100.00;100858.75;5054579;28;20074;-59
2022/12/20 08:29:53;;;;;;;17.17;6.50;;;;;;;8.83;100.00;100858.34;5057330;28;20043;-59
2022/12/20 08:32:20;;;;;;;15.00;6.07;;;;;;;8.76;100.00;100851.94;5065550;28;20041;-59
2022/12/20 08:34:47;;;;;;;26.80;12.52;;;;;;;8.72;100.00;100853.19;5058853;28;20468;-58
2022/12/20 08:37:17;;;;;;;282.52;130.63;;;;;;;8.82;100.00;100856.69;5046718;28;20045;-58
2022/12/20 08:39:44;;;;;;;18.40;8.55;;;;;;;8.78;99.86;100857.91;5069802;28;20041;-58
2022/12/20 08:42:12;;;;;;;14.55;6.28;;;;;;;8.79;99.89;100866.72;5066636;28;20055;-58
2022/12/20 08:44:38;;;;;;;14.18;5.95;;;;;;;8.85;99.49;100871.44;5054150;28;20045;-58
2022/12/20 08:47:05;;;;;;;17.58;6.20;;;;;;;8.81;100.00;100876.16;5054268;28;20091;-58
2022/12/20 08:49:32;;;;;;;14.75;6.10;;;;;;;8.83;99.89;100874.22;5054157;28;20095;-58
2022/12/20 08:51:58;;;;;;;18.25;5.93;;;;;;;8.91;99.54;100867.38;5046712;28;20048;-58
2022/12/20 08:54:25;;;;;;;14.45;6.03;;;;;;;8.95;99.00;100874.06;5061764;28;20045;-58
2022/12/20 08:56:52;;;;;;;14.75;6.07;;;;;;;8.94;98.72;100869.75;5059451;28;20135;-58
2022/12/20 08:59:19;;;;;;;13.77;6.53;;;;;;;9.05;98.89;100863.50;5053851;28;20441;-58
2022/12/20 09:01:46;;;;;;;11.80;6.35;;;;;;;9.00;98.19;100872.69;5054582;28;20411;-59
2022/12/20 09:04:14;;;;;;;15.98;6.97;;;;;;;8.96;98.60;100866.00;5053968;28;20120;-58
2022/12/20 09:06:40;;;;;;;15.25;6.28;;;;;;;9.09;97.63;100868.34;5038581;28;20584;-59
2022/12/20 09:09:07;;;;;;;12.15;5.82;;;;;;;9.05;98.19;100869.59;5053992;28;20107;-59
2022/12/20 09:11:34;;;;;;;14.75;6.30;;;;;;;9.02;98.25;100867.22;5054161;28;20041;-59
2022/12/20 09:14:02;;;;;;;16.17;6.30;;;;;;;9.07;97.90;100874.75;5053097;28;20037;-57
2022/12/20 09:16:31;;;;;;;15.63;5.93;;;;;;;8.99;98.63;100871.00;5053791;28;20045;-57
2022/12/20 09:19:00;;;;;;;14.70;6.43;;;;;;;9.04;98.53;100865.31;5060395;28;20040;-58
2022/12/20 09:21:30;;;;;;;16.73;6.28;;;;;;;8.96;98.73;100858.06;5041522;28;20170;-58
2022/12/20 09:23:57;;;;;;;16.73;6.63;;;;;;;9.05;99.20;100858.19;5066228;28;20095;-58
2022/12/20 09:26:25;;;;;;;14.48;6.03;;;;;;;8.97;99.17;100856.25;5058174;28;20398;-57
2022/12/20 09:28:51;;;;;;;14.45;5.40;;;;;;;9.00;98.89;100863.91;5059419;28;20045;-58
2022/12/20 09:31:21;;;;;;;17.45;5.97;;;;;;;9.03;98.77;100871.56;5062783;28;20037;-58
2022/12/20 09:33:47;;;;;;;15.85;6.28;;;;;;;8.99;99.09;100880.78;5053845;28;20047;-58
2022/12/20 09:36:17;;;;;;;14.30;6.28;;;;;;;9.05;98.79;100872.25;5053947;28;20056;-57
2022/12/20 09:38:44;;;;;;;12.40;5.85;;;;;;;9.20;97.87;100880.59;5058117;28;20049;-58
2022/12/20 09:41:33;;;;;;;17.38;6.63;;;;;;;8.99;98.87;100868.38;5052764;28;20044;-57
2022/12/20 09:44:04;;;;;;;14.02;6.50;;;;;;;8.99;98.78;100868.38;5038948;28;20041;-58
2022/12/20 09:46:32;;;;;;;17.38;5.82;;;;;;;9.03;98.12;100872.38;5063020;28;20126;-58
2022/12/20 09:48:58;;;;;;;13.05;6.25;;;;;;;9.03;98.77;100859.16;5057690;28;20078;-58
2022/12/20 09:51:47;;;;;;;18.27;6.50;;;;;;;9.05;98.54;100855.56;5053383;28;20423;-58
2022/12/20 09:54:48;;;;;;;15.68;6.28;;;;;;;9.06;98.88;100867.78;5059746;28;20052;-59
2022/12/20 09:57:39;;;;;;;14.43;6.10;;;;;;;9.03;99.05;100864.44;5054016;28;20041;-58
2022/12/20 10:00:16;;;;;;;21.70;6.25;;;;;;;9.04;98.66;100854.72;5052861;28;20574;-58
2022/12/20 10:02:43;;;;;;;16.90;6.18;;;;;;;9.19;98.48;100863.06;5054866;28;20123;-58
2022/12/20 10:05:45;;;;;;;14.02;6.20;;;;;;;9.26;98.50;100858.00;5050995;28;20045;-58
2022/12/20 10:08:42;;;;;;;16.08;6.80;;;;;;;9.29;98.54;100858.56;5042742;28;20059;-58
2022/12/20 10:11:41;;;;;;;23.33;5.95;;;;;;;9.16;98.86;100858.88;5056605;28;20056;-58
2022/12/20 10:14:36;;;;;;;14.50;5.97;;;;;;;9.30;98.88;100854.13;5051614;28;20463;-58
2022/12/20 10:17:08;;;;;;;21.27;6.80;;;;;;;9.16;99.03;100848.28;5048208;28;20135;-58
2022/12/20 10:20:02;;;;;;;14.80;6.35;;;;;;;9.15;99.15;100845.78;5061102;28;20047;-58
2022/12/20 10:22:53;;;;;;;17.75;7.20;;;;;;;9.24;98.75;100839.66;5049632;28;20044;-58
2022/12/20 10:25:23;;;;;;;19.08;7.50;;;;;;;9.29;98.47;100840.03;5050235;28;20569;-58
2022/12/20 10:27:55;;;;;;;13.43;6.00;;;;;;;9.23;98.60;100838.78;5046388;28;20051;-59
2022/12/20 10:30:25;;;;;;;16.88;6.18;;;;;;;9.39;97.55;100826.78;5060538;28;20437;-58
2022/12/20 10:32:55;;;;;;;11.73;5.68;;;;;;;9.38;97.92;100830.41;5051039;28;20036;-58
2022/12/20 10:35:39;;;;;;;16.50;5.65;;;;;;;9.39;97.79;100824.13;5059190;28;20128;-62
2022/12/20 10:38:11;;;;;;;15.00;6.15;;;;;;;9.48;97.41;100825.06;5043074;28;20049;-58
2022/12/20 10:40:41;;;;;;;11.98;6.20;;;;;;;9.51;97.39;100816.84;5047696;28;20037;-58
2022/12/20 10:43:41;;;;;;;15.82;6.05;;;;;;;9.59;96.89;100809.00;5056422;28;20041;-56
2022/12/20 10:46:09;;;;;;;15.57;5.95;;;;;;;9.56;97.06;100809.28;5009807;28;20053;-57
2022/12/20 10:48:39;;;;;;;16.15;5.97;;;;;;;9.54;97.14;100798.84;5037464;28;20056;-57
2022/12/20 10:53:58;;;;;;;16.23;6.03;;;;;;;9.69;97.02;100793.88;5067282;27;20888;-56
2022/12/20 10:56:30;;;;;;;11.48;5.32;;;;;;;9.70;97.25;100792.91;5029563;28;20041;-57
2022/12/20 11:01:56;;;;;;;16.55;6.50;;;;;;;9.75;96.43;100789.81;5049080;28;20408;-57
2022/12/20 11:04:31;;;;;;;12.63;5.63;;;;;;;9.67;96.25;100792.38;5033205;28;20049;-56
2022/12/20 11:07:00;;;;;;;12.40;5.85;;;;;;;9.85;96.74;100784.47;5047998;28;20053;-56
2022/12/20 11:09:34;;;;;;;14.07;6.38;;;;;;;9.78;95.65;100779.75;5047227;28;20098;-57
2022/12/20 11:14:45;;;;;;;15.45;6.05;;;;;;;9.97;95.19;100772.69;5099610;27;20416;-57
2022/12/20 11:20:29;;;;;;;16.02;5.78;;;;;;;10.08;94.62;100763.72;5099589;27;20051;-57
2022/12/20 11:23:17;;;;;;;11.15;5.78;;;;;;;10.09;93.77;100760.06;5075810;28;20148;-57
2022/12/20 11:26:11;;;;;;;14.77;6.90;;;;;;;9.99;94.76;100760.13;5083773;28;20060;-57
2022/12/20 11:29:02;;;;;;;13.50;5.28;;;;;;;10.14;93.86;100760.44;5101305;28;20047;-57
2022/12/20 11:31:58;;;;;;;15.68;6.68;;;;;;;10.06;94.47;100755.91;5105437;28;20040;-58
2022/12/20 11:34:54;;;;;;;17.05;5.18;;;;;;;10.02;94.32;100757.16;5082974;28;20734;-57
2022/12/20 11:37:25;;;;;;;12.93;5.22;;;;;;;10.02;94.75;100762.47;5085994;28;20044;-58
2022/12/20 11:40:20;;;;;;;15.53;5.83;;;;;;;10.06;94.69;100750.59;5102685;28;20044;-58
2022/12/20 11:46:30;;;;;;;13.40;5.43;;;;;;;9.95;95.60;100733.09;5086976;27;20994;-57
2022/12/20 11:49:34;;;;;;;15.48;5.75;;;;;;;10.04;94.88;100741.97;5085887;28;20517;-53
2022/12/20 11:52:08;;;;;;;16.13;5.90;;;;;;;10.12;94.51;100727.94;5103184;28;20131;-53
2022/12/20 11:54:43;;;;;;;11.77;5.63;;;;;;;10.18;94.26;100727.34;5069719;28;20054;-58
2022/12/20 11:57:18;;;;;;;12.23;5.20;;;;;;;10.17;94.45;100725.69;5082503;28;20417;-58
2022/12/20 11:59:51;;;;;;;13.88;5.38;;;;;;;10.12;94.36;100725.31;5085847;28;20408;-58
2022/12/20 12:02:57;;;;;;;10.80;5.28;;;;;;;10.19;94.02;100724.53;5099325;28;20046;-58
2022/12/20 12:05:42;;;;;;;12.30;5.05;;;;;;;10.30;93.56;100726.13;5080553;28;20055;-58
2022/12/20 12:08:17;;;;;;;15.57;5.10;;;;;;;10.30;93.58;100725.31;5079975;28;20066;-57
2022/12/20 12:10:56;;;;;;;11.15;5.25;;;;;;;10.33;93.15;100730.31;5086178;28;20508;-58
2022/12/20 12:13:28;;;;;;;12.73;4.90;;;;;;;10.26;93.45;100730.06;5063767;28;20513;-58
2022/12/20 12:16:19;;;;;;;15.85;4.68;;;;;;;10.26;93.63;100732.72;5084474;28;20039;-58